Time;durP1;ratioP1;P1;durP2;ratioP2;P2;SDS_P1;SDS_P2;PMS_P1;PMS_P2;Temp;Humidity;BMP_temperature;BMP_pressure;BME280_temperature;BME280_humidity;BME280_pressure;Samples;Min_cycle;Max_cycle;Signal;HPM_P1;HPM_P2
2021/10/11 00:00:39;;;;;;;235.77;81.50;;;9.90;99.90;;;;;;6190513;23;20403;-76
2021/10/11 00:03:08;;;;;;;239.83;74.73;;;9.90;99.90;;;;;;6226406;23;20399;-76
2021/10/11 00:05:37;;;;;;;379.67;91.73;;;9.90;99.90;;;;;;6190584;23;20517;-75
2021/10/11 00:08:06;;;;;;;339.70;82.70;;;9.90;99.90;;;;;;6190404;23;20430;-76
2021/10/11 00:10:35;;;;;;;173.47;78.47;;;10.00;99.90;;;;;;6190227;23;20433;-76
2021/10/11 00:13:03;;;;;;;327.90;87.60;;;10.00;99.90;;;;;;6226850;23;20437;-76
2021/10/11 00:15:31;;;;;;;246.13;80.00;;;10.00;99.90;;;;;;6217385;23;20438;-76
2021/10/11 00:17:59;;;;;;;261.00;72.53;;;10.00;99.90;;;;;;6190437;23;20525;-77
2021/10/11 00:20:29;;;;;;;215.67;72.53;;;10.10;99.90;;;;;;6216809;23;20405;-77
2021/10/11 00:22:57;;;;;;;247.23;84.10;;;10.10;99.90;;;;;;6190057;23;20442;-76
2021/10/11 00:25:25;;;;;;;172.90;67.87;;;10.10;99.90;;;;;;6189965;23;20418;-77
2021/10/11 00:27:54;;;;;;;187.17;72.03;;;10.10;99.90;;;;;;6190128;23;20445;-77
2021/10/11 00:30:22;;;;;;;199.93;74.03;;;10.10;99.90;;;;;;6190295;23;20418;-77
2021/10/11 00:32:50;;;;;;;212.73;81.63;;;10.20;99.90;;;;;;6190325;23;20445;-77
2021/10/11 00:35:18;;;;;;;242.80;80.57;;;10.20;99.90;;;;;;6190346;23;20498;-77
2021/10/11 00:37:48;;;;;;;274.07;82.97;;;10.20;99.90;;;;;;6189912;23;20446;-76
2021/10/11 00:40:16;;;;;;;67.07;60.00;;;10.30;99.90;;;;;;6215803;23;20398;-81
2021/10/11 00:42:44;;;;;;;272.10;96.03;;;10.40;99.90;;;;;;6189943;23;20254;-77
2021/10/11 00:45:12;;;;;;;131.70;70.35;;;10.40;99.90;;;;;;6189681;23;20425;-77
2021/10/11 00:47:40;;;;;;;250.30;89.83;;;10.50;99.90;;;;;;6216265;23;20198;-77
2021/10/11 00:50:10;;;;;;;262.30;88.73;;;10.50;99.90;;;;;;6216382;23;20419;-76
2021/10/11 00:52:39;;;;;;;196.77;80.07;;;10.50;99.90;;;;;;6189828;23;20530;-77
2021/10/11 00:55:09;;;;;;;369.90;96.60;;;10.50;99.90;;;;;;6189764;23;20449;-77
2021/10/11 00:57:37;;;;;;;302.33;83.13;;;10.60;99.90;;;;;;6217020;23;20459;-77
2021/10/11 01:00:07;;;;;;;243.27;80.47;;;10.60;99.90;;;;;;6190025;23;20514;-77
2021/10/11 01:02:36;;;;;;;327.13;93.00;;;10.60;99.90;;;;;;6190431;23;20395;-77
2021/10/11 01:05:04;;;;;;;260.37;79.23;;;10.70;99.90;;;;;;6189766;23;20729;-77
2021/10/11 01:07:32;;;;;;;219.63;79.17;;;10.70;99.90;;;;;;6189785;23;20422;-77
2021/10/11 01:10:01;;;;;;;239.53;75.87;;;10.80;99.90;;;;;;6189731;23;20485;-77
2021/10/11 01:12:31;;;;;;;259.27;85.20;;;10.80;99.90;;;;;;6189704;23;20525;-77
2021/10/11 01:14:59;;;;;;;222.50;74.67;;;10.80;99.90;;;;;;6189382;23;20906;-77
2021/10/11 01:17:27;;;;;;;409.10;94.67;;;10.90;99.90;;;;;;6190049;23;20792;-76
2021/10/11 01:19:57;;;;;;;236.53;77.13;;;10.90;99.90;;;;;;6189670;23;20407;-77
2021/10/11 01:22:34;;;;;;;349.40;97.03;;;11.00;99.90;;;;;;6189942;23;20418;-77
2021/10/11 01:25:03;;;;;;;318.83;93.50;;;11.00;99.90;;;;;;6189684;23;20498;-77
2021/10/11 01:27:32;;;;;;;383.87;84.70;;;11.00;99.90;;;;;;6189431;23;20894;-77
2021/10/11 01:30:00;;;;;;;332.13;78.77;;;11.00;99.90;;;;;;6189585;23;20415;-77
2021/10/11 01:32:29;;;;;;;245.83;77.57;;;11.10;99.90;;;;;;6189433;23;20471;-77
2021/10/11 01:34:58;;;;;;;276.23;80.03;;;11.10;99.90;;;;;;6189548;23;20940;-77
2021/10/11 01:37:27;;;;;;;235.83;78.37;;;11.10;99.90;;;;;;6189758;23;20961;-77
2021/10/11 01:39:55;;;;;;;68.55;57.00;;;11.20;99.90;;;;;;6225016;23;20492;-76
2021/10/11 01:42:23;;;;;;;328.40;81.13;;;11.30;99.90;;;;;;6189703;23;20678;-77
2021/10/11 01:44:51;;;;;;;167.07;72.13;;;11.30;99.90;;;;;;6189390;23;20821;-77
2021/10/11 01:47:19;;;;;;;215.80;75.97;;;11.30;99.90;;;;;;6189706;23;20413;-77
2021/10/11 01:49:47;;;;;;;241.73;77.37;;;11.30;99.90;;;;;;6225971;23;20422;-77
2021/10/11 01:52:17;;;;;;;217.90;67.33;;;11.30;99.90;;;;;;6189492;23;20421;-77
2021/10/11 01:54:45;;;;;;;289.17;69.37;;;11.30;99.90;;;;;;6189352;23;20422;-77
2021/10/11 01:57:15;;;;;;;319.07;84.40;;;11.30;99.90;;;;;;6226552;23;20415;-77
2021/10/11 01:59:44;;;;;;;124.77;68.43;;;11.30;99.90;;;;;;6190602;23;20525;-77
2021/10/11 02:02:12;;;;;;;166.23;67.37;;;11.30;99.90;;;;;;6189461;23;20503;-79
2021/10/11 02:04:41;;;;;;;182.07;64.83;;;11.40;99.90;;;;;;6225956;23;20988;-77
2021/10/11 02:07:10;;;;;;;154.97;64.80;;;11.40;99.90;;;;;;6189885;23;20403;-77
2021/10/11 02:09:39;;;;;;;236.47;68.63;;;11.40;99.90;;;;;;6189090;23;20947;-77
2021/10/11 02:12:08;;;;;;;240.20;65.47;;;11.40;99.90;;;;;;6189239;23;20413;-77
2021/10/11 02:14:36;;;;;;;236.17;71.77;;;11.40;99.90;;;;;;6189295;23;20529;-77
2021/10/11 02:17:04;;;;;;;236.77;73.60;;;11.40;99.90;;;;;;6189429;23;20413;-76
2021/10/11 02:19:33;;;;;;;287.03;80.23;;;11.40;99.90;;;;;;6189222;23;20834;-77
2021/10/11 02:22:02;;;;;;;206.03;62.17;;;11.50;99.90;;;;;;6216229;23;20405;-77
2021/10/11 02:24:30;;;;;;;213.20;71.30;;;11.40;99.90;;;;;;6189000;23;20759;-77
2021/10/11 02:26:59;;;;;;;61.50;48.08;;;11.50;99.90;;;;;;6214109;23;20425;-76
2021/10/11 02:29:30;;;;;;;262.17;75.87;;;11.50;99.90;;;;;;6215677;23;20282;-77
2021/10/11 02:31:58;;;;;;;55.08;44.90;;;11.50;99.90;;;;;;6188716;23;20418;-77
2021/10/11 02:34:26;;;;;;;218.20;78.33;;;11.60;99.90;;;;;;6189013;23;20191;-76
2021/10/11 02:36:54;;;;;;;233.97;68.77;;;11.60;99.90;;;;;;6189189;23;20450;-77
2021/10/11 02:39:22;;;;;;;244.47;75.73;;;11.60;99.90;;;;;;6189212;23;20529;-76
2021/10/11 02:41:51;;;;;;;287.03;72.67;;;11.50;99.90;;;;;;6189075;23;20442;-77
2021/10/11 02:44:20;;;;;;;284.43;73.63;;;11.50;99.90;;;;;;6189082;23;20415;-77
2021/10/11 02:46:48;;;;;;;181.43;66.80;;;11.50;99.90;;;;;;6188727;23;20506;-77
2021/10/11 02:49:17;;;;;;;196.07;65.37;;;11.50;99.90;;;;;;6216361;23;20415;-77
2021/10/11 02:51:45;;;;;;;202.57;56.57;;;11.60;99.90;;;;;;6225719;23;20464;-77
2021/10/11 02:54:16;;;;;;;104.13;52.73;;;11.60;99.90;;;;;;6222926;23;20933;-77
2021/10/11 02:56:45;;;;;;;283.47;70.37;;;11.50;99.90;;;;;;6225979;23;20497;-77
2021/10/11 02:59:13;;;;;;;209.67;67.90;;;11.60;99.90;;;;;;6189057;23;20936;-77
2021/10/11 03:01:43;;;;;;;223.57;60.33;;;11.60;99.90;;;;;;6215828;23;20430;-77
2021/10/11 03:04:11;;;;;;;259.37;72.40;;;11.60;99.90;;;;;;6189066;23;20419;-76
2021/10/11 03:06:39;;;;;;;218.17;59.67;;;11.60;99.90;;;;;;6188909;23;20912;-76
2021/10/11 03:09:08;;;;;;;194.30;57.17;;;11.60;99.90;;;;;;6188900;23;20450;-77
2021/10/11 03:11:36;;;;;;;243.37;70.57;;;11.60;99.90;;;;;;6189125;23;20446;-77
2021/10/11 03:14:04;;;;;;;217.33;63.83;;;11.60;99.90;;;;;;6225644;23;20454;-76
2021/10/11 03:16:34;;;;;;;213.10;64.63;;;11.60;99.90;;;;;;6188946;23;20497;-77
2021/10/11 03:19:04;;;;;;;37.87;30.90;;;11.60;99.90;;;;;;6187400;23;20421;-77
2021/10/11 03:21:32;;;;;;;239.60;58.87;;;11.70;99.90;;;;;;6189174;23;20469;-77
2021/10/11 03:24:00;;;;;;;35.50;28.67;;;11.70;99.90;;;;;;6188064;23;20892;-77
2021/10/11 03:26:28;;;;;;;322.77;82.97;;;11.70;99.90;;;;;;6189009;23;20501;-77
2021/10/11 03:28:57;;;;;;;208.73;61.70;;;11.70;99.90;;;;;;6189000;23;20995;-77
2021/10/11 03:31:25;;;;;;;240.17;66.90;;;11.70;99.90;;;;;;6189008;23;20418;-77
2021/10/11 03:33:53;;;;;;;245.43;69.30;;;11.70;99.90;;;;;;6188391;23;20450;-77
2021/10/11 03:36:23;;;;;;;182.27;50.27;;;11.70;99.90;;;;;;6215823;23;20457;-77
2021/10/11 03:38:51;;;;;;;179.77;55.43;;;11.70;99.90;;;;;;6190729;23;20448;-77
2021/10/11 03:41:19;;;;;;;198.70;57.47;;;11.70;99.90;;;;;;6190984;23;20419;-77
2021/10/11 03:43:47;;;;;;;157.93;43.80;;;11.70;99.90;;;;;;6190592;23;20506;-77
2021/10/11 03:46:15;;;;;;;180.17;45.93;;;11.70;99.90;;;;;;6227364;23;20395;-77
2021/10/11 03:48:44;;;;;;;146.33;42.03;;;11.70;99.90;;;;;;6217490;23;20800;-77
2021/10/11 03:51:12;;;;;;;278.03;64.83;;;11.70;99.90;;;;;;6217439;23;20477;-77
2021/10/11 03:53:41;;;;;;;198.17;52.63;;;11.70;99.90;;;;;;6190210;23;20422;-77
2021/10/11 03:56:09;;;;;;;217.17;63.57;;;11.70;99.90;;;;;;6227470;23;20399;-77
2021/10/11 03:58:37;;;;;;;222.33;47.30;;;11.70;99.90;;;;;;6190414;23;20460;-77
2021/10/11 04:01:06;;;;;;;273.13;68.73;;;11.70;99.90;;;;;;6217394;23;20442;-78
2021/10/11 04:03:34;;;;;;;252.47;55.57;;;11.70;99.90;;;;;;6190495;23;20422;-77
2021/10/11 04:06:02;;;;;;;256.33;70.23;;;11.70;99.90;;;;;;6190424;23;20455;-77
2021/10/11 04:08:34;;;;;;;76.65;23.10;;;11.70;99.90;;;;;;6226656;23;20478;-77
2021/10/11 04:11:08;;;;;;;176.03;45.97;;;11.70;99.90;;;;;;6190434;23;20171;-77
2021/10/11 04:13:37;;;;;;;113.07;43.50;;;11.80;99.90;;;;;;6217107;23;20464;-77
2021/10/11 04:16:06;;;;;;;190.70;52.07;;;11.70;99.90;;;;;;6190081;23;20457;-78
2021/10/11 04:18:35;;;;;;;136.10;44.47;;;11.80;99.90;;;;;;6190154;23;20443;-77
2021/10/11 04:21:03;;;;;;;160.93;36.90;;;11.70;99.90;;;;;;6190833;23;20737;-77
2021/10/11 04:23:32;;;;;;;168.40;49.77;;;11.70;99.90;;;;;;6190363;23;20494;-78
2021/10/11 04:26:00;;;;;;;212.87;64.07;;;11.70;99.90;;;;;;6217096;23;20406;-77
2021/10/11 04:28:30;;;;;;;188.67;47.33;;;11.70;99.90;;;;;;6189994;23;20449;-77
2021/10/11 04:30:58;;;;;;;221.73;58.40;;;11.70;99.90;;;;;;6226930;23;20485;-77
2021/10/11 04:33:26;;;;;;;238.10;52.87;;;11.70;99.90;;;;;;6190155;23;20414;-77
2021/10/11 04:35:55;;;;;;;232.90;56.67;;;11.80;99.90;;;;;;6190470;23;20438;-77
2021/10/11 04:38:23;;;;;;;264.87;63.60;;;11.70;99.90;;;;;;6190201;23;20438;-77
2021/10/11 04:40:51;;;;;;;192.70;47.43;;;11.80;99.90;;;;;;6190150;23;20429;-77
2021/10/11 04:43:19;;;;;;;304.63;70.30;;;11.70;99.90;;;;;;6189848;23;20800;-78
2021/10/11 04:45:49;;;;;;;315.20;58.40;;;11.70;99.90;;;;;;6227025;23;20479;-77
2021/10/11 04:48:17;;;;;;;298.50;79.30;;;11.70;99.90;;;;;;6190136;23;20517;-77
2021/10/11 04:50:45;;;;;;;304.63;54.27;;;11.70;99.90;;;;;;6189906;23;20419;-77
2021/10/11 04:53:13;;;;;;;219.17;61.83;;;11.70;99.90;;;;;;6189777;23;20805;-77
2021/10/11 04:55:44;;;;;;;251.37;62.07;;;11.70;99.90;;;;;;6189766;23;20446;-77
2021/10/11 04:58:12;;;;;;;150.55;36.30;;;11.70;99.90;;;;;;6226315;23;20497;-77
2021/10/11 05:00:41;;;;;;;272.07;60.20;;;11.70;99.90;;;;;;6189911;23;20222;-78
2021/10/11 05:03:11;;;;;;;235.03;43.07;;;11.70;99.90;;;;;;6189888;23;20493;-77
2021/10/11 05:05:39;;;;;;;21.00;13.45;;;11.70;99.90;;;;;;6188589;23;20445;-77
2021/10/11 05:08:07;;;;;;;255.13;50.23;;;11.70;99.90;;;;;;6189678;23;20187;-77
2021/10/11 05:10:36;;;;;;;181.23;45.50;;;11.70;99.90;;;;;;6190140;23;20477;-77
2021/10/11 05:13:04;;;;;;;211.27;51.07;;;11.70;99.90;;;;;;6189352;23;20789;-77
2021/10/11 05:15:33;;;;;;;233.80;48.00;;;11.70;99.90;;;;;;6188303;23;20439;-79
2021/10/11 05:18:01;;;;;;;225.30;50.77;;;11.70;99.90;;;;;;6189477;23;20426;-77
2021/10/11 05:20:33;;;;;;;232.33;48.73;;;11.60;99.90;;;;;;6189623;23;20947;-77
2021/10/11 05:23:01;;;;;;;247.17;54.23;;;11.60;99.90;;;;;;6189681;23;20407;-77
2021/10/11 05:25:30;;;;;;;265.67;62.73;;;11.60;99.90;;;;;;6189696;23;20418;-77
2021/10/11 05:27:58;;;;;;;247.77;59.63;;;11.60;99.90;;;;;;6216507;23;20427;-77
2021/10/11 05:30:26;;;;;;;239.47;57.93;;;11.50;99.90;;;;;;6189762;23;20804;-77
2021/10/11 05:32:54;;;;;;;229.43;55.97;;;11.50;99.90;;;;;;6216585;23;20468;-78
2021/10/11 05:35:23;;;;;;;248.87;46.73;;;11.50;99.90;;;;;;6189712;23;20481;-77
2021/10/11 05:37:52;;;;;;;257.80;39.73;;;11.50;99.90;;;;;;6226272;23;20788;-77
2021/10/11 05:40:20;;;;;;;234.97;44.70;;;11.50;99.90;;;;;;6189619;23;20428;-77
2021/10/11 05:42:49;;;;;;;312.50;51.93;;;11.50;99.90;;;;;;6189569;23;20818;-77
2021/10/11 05:45:17;;;;;;;268.97;47.03;;;11.50;99.90;;;;;;6189620;23;20822;-76
2021/10/11 05:47:45;;;;;;;208.53;39.23;;;11.40;99.90;;;;;;6189444;23;20414;-77
2021/10/11 05:50:13;;;;;;;315.90;37.43;;;11.40;99.90;;;;;;6189565;23;20447;-77
2021/10/11 05:52:41;;;;;;;232.50;45.30;;;11.40;99.90;;;;;;6189407;23;20497;-78
2021/10/11 05:55:11;;;;;;;10.25;5.95;;;11.40;99.90;;;;;;6187970;23;20425;-77
2021/10/11 05:57:42;;;;;;;186.67;39.83;;;11.50;99.90;;;;;;6189864;23;20625;-77
2021/10/11 06:00:11;;;;;;;218.60;54.60;;;11.50;99.90;;;;;;6189347;23;20446;-77
2021/10/11 06:02:40;;;;;;;292.30;55.97;;;11.50;99.90;;;;;;6226476;23;20477;-77
2021/10/11 06:05:08;;;;;;;301.00;64.50;;;11.40;99.90;;;;;;6189775;23;20795;-77
2021/10/11 06:07:37;;;;;;;206.13;38.87;;;11.40;99.90;;;;;;6216443;23;20449;-77
2021/10/11 06:10:06;;;;;;;270.73;55.33;;;11.40;99.90;;;;;;6189765;23;20553;-77
2021/10/11 06:12:36;;;;;;;242.00;46.27;;;11.50;99.90;;;;;;6189354;23;20976;-76
2021/10/11 06:15:04;;;;;;;251.37;44.90;;;11.40;99.90;;;;;;6189361;23;20925;-77
2021/10/11 06:17:33;;;;;;;209.87;39.20;;;11.40;99.90;;;;;;6189315;23;20985;-78
2021/10/11 06:20:01;;;;;;;167.27;29.90;;;11.50;99.90;;;;;;6189245;23;20807;-77
2021/10/11 06:22:30;;;;;;;287.03;55.60;;;11.50;99.90;;;;;;6189399;23;20419;-77
2021/10/11 06:24:58;;;;;;;149.90;36.03;;;11.50;99.90;;;;;;6216280;23;20446;-76
2021/10/11 06:27:27;;;;;;;278.00;49.10;;;11.50;99.90;;;;;;6225988;23;20426;-77
2021/10/11 06:29:57;;;;;;;173.73;36.33;;;11.50;99.90;;;;;;6189080;23;20414;-76
2021/10/11 06:32:25;;;;;;;228.07;49.13;;;11.50;99.90;;;;;;6216199;23;20811;-77
2021/10/11 06:34:53;;;;;;;292.57;61.50;;;11.50;99.90;;;;;;6189083;23;20524;-76
2021/10/11 06:37:21;;;;;;;255.97;47.13;;;11.50;99.90;;;;;;6216196;23;20414;-77
2021/10/11 06:39:50;;;;;;;10.35;4.80;;;11.50;99.90;;;;;;6187706;23;20449;-77
2021/10/11 06:42:18;;;;;;;153.13;28.23;;;11.60;99.90;;;;;;6189316;23;20221;-77
2021/10/11 06:44:48;;;;;;;10.20;5.53;;;11.60;99.90;;;;;;6188637;23;20425;-77
2021/10/11 06:47:18;;;;;;;186.43;37.83;;;11.70;99.90;;;;;;6189693;23;20163;-77
2021/10/11 06:49:46;;;;;;;220.03;54.17;;;11.70;99.90;;;;;;6188936;23;20438;-77
2021/10/11 06:52:14;;;;;;;277.77;56.77;;;11.70;99.90;;;;;;6189195;23;20456;-76
2021/10/11 06:54:43;;;;;;;219.17;43.47;;;11.70;99.90;;;;;;6189121;23;20415;-77
2021/10/11 06:57:11;;;;;;;172.97;48.10;;;11.70;99.90;;;;;;6189145;23;20533;-77
2021/10/11 06:59:41;;;;;;;331.93;69.20;;;11.70;99.90;;;;;;6189201;23;20985;-77
2021/10/11 07:02:09;;;;;;;240.63;63.17;;;11.70;99.90;;;;;;6226008;23;20437;-77
2021/10/11 07:04:44;;;;;;;158.60;45.17;;;11.70;99.90;;;;;;6188988;23;20796;-77
2021/10/11 07:07:12;;;;;;;348.33;64.10;;;11.70;99.90;;;;;;6189320;23;20509;-77
2021/10/11 07:09:40;;;;;;;359.33;65.53;;;11.70;99.90;;;;;;6189500;23;20442;-77
2021/10/11 07:12:08;;;;;;;331.10;77.57;;;11.70;99.90;;;;;;6226925;23;20426;-77
2021/10/11 07:14:36;;;;;;;252.57;42.43;;;11.70;99.90;;;;;;6190817;23;20418;-77
2021/10/11 07:17:05;;;;;;;253.57;62.07;;;11.70;99.90;;;;;;6191032;23;20925;-77
2021/10/11 07:19:33;;;;;;;328.00;73.10;;;11.70;99.90;;;;;;6190873;23;20435;-77
2021/10/11 07:22:02;;;;;;;280.70;70.27;;;11.80;99.90;;;;;;6190711;23;20501;-77
2021/10/11 07:24:30;;;;;;;329.43;63.00;;;11.80;99.90;;;;;;6227497;23;20391;-77
2021/10/11 07:26:58;;;;;;;367.77;80.03;;;11.80;99.90;;;;;;6190997;23;20410;-77
2021/10/11 07:29:27;;;;;;;10.55;4.80;;;11.80;99.90;;;;;;6189548;23;20414;-76
2021/10/11 07:31:55;;;;;;;143.17;34.90;;;11.90;99.90;;;;;;6190934;23;20172;-77
2021/10/11 07:34:24;;;;;;;11.70;5.20;;;12.00;99.90;;;;;;6227407;23;20855;-77
2021/10/11 07:36:52;;;;;;;244.40;55.60;;;12.00;99.90;;;;;;6190541;23;20545;-76
2021/10/11 07:39:22;;;;;;;213.53;49.43;;;12.00;99.90;;;;;;6190872;23;20461;-77
2021/10/11 07:41:50;;;;;;;137.33;52.00;;;12.00;99.90;;;;;;6190766;23;21005;-76
2021/10/11 07:44:18;;;;;;;281.73;66.20;;;12.00;99.90;;;;;;6190748;23;20449;-77
2021/10/11 07:46:51;;;;;;;302.30;71.37;;;12.00;99.90;;;;;;6190596;23;20984;-78
2021/10/11 07:49:31;;;;;;;313.50;82.07;;;12.00;99.90;;;;;;6190575;23;20430;-77
2021/10/11 07:51:59;;;;;;;371.37;67.93;;;12.10;99.90;;;;;;6191551;23;20422;-77
2021/10/11 07:54:29;;;;;;;337.43;70.60;;;12.10;99.90;;;;;;6190341;23;20969;-77
2021/10/11 07:56:58;;;;;;;422.57;95.47;;;12.10;99.90;;;;;;6190668;23;20423;-76
2021/10/11 07:59:28;;;;;;;252.07;60.97;;;12.20;99.90;;;;;;6217896;23;20426;-76
2021/10/11 08:01:57;;;;;;;356.00;103.93;;;12.30;99.90;;;;;;6191074;23;20411;-76
2021/10/11 08:04:25;;;;;;;379.63;90.90;;;12.40;99.90;;;;;;6191108;23;20443;-76
2021/10/11 08:06:53;;;;;;;442.53;86.80;;;12.40;99.90;;;;;;6191076;23;20906;-76
2021/10/11 08:09:21;;;;;;;303.23;96.33;;;12.50;99.90;;;;;;6191395;23;20434;-76
2021/10/11 08:11:51;;;;;;;328.43;103.40;;;12.50;99.90;;;;;;6227586;23;20431;-76
2021/10/11 08:14:19;;;;;;;23.10;18.77;;;12.60;99.90;;;;;;6190745;23;20425;-76
2021/10/11 08:16:47;;;;;;;31.93;23.20;;;12.70;99.90;;;;;;6190166;23;20831;-76
2021/10/11 08:19:16;;;;;;;10.10;4.47;;;12.80;99.90;;;;;;6215670;23;20540;-76
2021/10/11 08:21:44;;;;;;;323.73;82.37;;;12.90;99.90;;;;;;6226916;23;20191;-76
2021/10/11 08:24:13;;;;;;;9.60;4.15;;;13.00;99.90;;;;;;6188712;23;20449;-76
2021/10/11 08:26:41;;;;;;;425.43;104.17;;;13.10;99.90;;;;;;6190268;23;20634;-77
2021/10/11 08:29:10;;;;;;;41.53;32.17;;;13.20;99.90;;;;;;6190235;23;20743;-76
2021/10/11 08:31:38;;;;;;;150.83;96.13;;;13.20;99.90;;;;;;6190225;23;20829;-74
2021/10/11 08:34:07;;;;;;;653.50;300.40;;;13.30;99.90;;;;;;6190344;23;20423;-76
2021/10/11 08:36:35;;;;;;;968.17;392.47;;;13.30;99.90;;;;;;6189871;23;20469;-76
2021/10/11 08:39:03;;;;;;;882.70;391.87;;;13.40;99.90;;;;;;6190145;23;20785;-76
2021/10/11 08:41:32;;;;;;;762.33;314.07;;;13.40;99.90;;;;;;6190079;23;20803;-76
2021/10/11 08:44:00;;;;;;;722.77;356.63;;;13.40;99.90;;;;;;6190282;23;20414;-76
2021/10/11 08:46:30;;;;;;;1999.90;824.93;;;13.40;99.90;;;;;;6189938;23;20989;-76
2021/10/11 08:49:00;;;;;;;1865.33;690.07;;;13.50;99.90;;;;;;6216532;23;20454;-76
2021/10/11 08:51:28;;;;;;;1920.33;725.97;;;13.50;99.90;;;;;;6190106;23;20510;-76
2021/10/11 08:53:56;;;;;;;1925.10;703.47;;;13.60;99.90;;;;;;6190116;23;20411;-76
2021/10/11 08:56:24;;;;;;;1860.33;715.93;;;13.60;99.90;;;;;;6189729;23;20457;-76
2021/10/11 08:58:52;;;;;;;1524.23;626.03;;;13.60;99.90;;;;;;6190850;23;20435;-76
2021/10/11 09:01:22;;;;;;;1971.57;754.37;;;13.70;99.90;;;;;;6189862;23;20422;-76
2021/10/11 09:03:52;;;;;;;1999.90;884.20;;;13.80;99.90;;;;;;6189857;23;20402;-76
2021/10/11 09:06:21;;;;;;;24.13;14.70;;;13.80;99.90;;;;;;6189440;23;20877;-76
2021/10/11 09:08:49;;;;;;;1822.07;680.53;;;13.90;99.90;;;;;;6189605;23;21041;-76
2021/10/11 09:11:18;;;;;;;1999.90;843.93;;;14.00;99.90;;;;;;6189739;23;20488;-76
2021/10/11 09:13:52;;;;;;;1999.90;999.90;;;14.00;99.90;;;;;;6189676;23;20418;-75
2021/10/11 09:16:29;;;;;;;1999.90;993.27;;;14.00;99.90;;;;;;6189722;23;20460;-76
2021/10/11 09:19:10;;;;;;;1999.90;976.73;;;14.10;99.90;;;;;;6189618;23;20752;-76
2021/10/11 09:21:39;;;;;;;1999.90;897.60;;;14.10;99.90;;;;;;6189761;23;20469;-77
2021/10/11 09:24:09;;;;;;;1999.90;955.10;;;14.10;99.90;;;;;;6189603;23;20505;-76
2021/10/11 09:26:45;;;;;;;1999.90;999.90;;;14.00;99.90;;;;;;6226653;23;20494;-76
2021/10/11 09:29:14;;;;;;;1999.90;880.33;;;14.00;99.90;;;;;;6189555;23;20469;-76
2021/10/11 09:31:47;;;;;;;1999.90;826.13;;;13.90;99.90;;;;;;6189454;23;20510;-76
2021/10/11 09:34:20;;;;;;;1906.93;729.07;;;13.90;99.90;;;;;;6189649;23;20888;-76
2021/10/11 09:36:57;;;;;;;932.97;457.73;;;13.80;99.90;;;;;;6189479;23;20485;-76
2021/10/11 09:39:27;;;;;;;809.53;396.77;;;13.70;99.90;;;;;;6189656;23;20473;-76
2021/10/11 09:41:57;;;;;;;219.90;129.00;;;13.60;99.90;;;;;;6189389;23;20913;-77
2021/10/11 09:44:25;;;;;;;185.90;131.97;;;13.60;99.90;;;;;;6216320;23;20395;-77
2021/10/11 09:46:57;;;;;;;167.07;111.77;;;13.50;99.90;;;;;;6189667;23;20916;-77
2021/10/11 09:49:27;;;;;;;131.40;96.47;;;13.50;99.90;;;;;;6189432;23;20438;-77
2021/10/11 09:51:56;;;;;;;94.13;69.00;;;13.50;99.90;;;;;;6190485;23;20454;-76
2021/10/11 09:54:25;;;;;;;8.10;3.20;;;13.50;99.90;;;;;;6187933;23;20421;-77
2021/10/11 09:56:53;;;;;;;408.97;101.47;;;13.60;99.90;;;;;;6189385;23;20514;-77
2021/10/11 09:59:22;;;;;;;9.98;3.33;;;13.70;99.90;;;;;;6189389;23;20410;-76
2021/10/11 10:01:50;;;;;;;361.50;83.10;;;13.70;99.90;;;;;;6216018;23;20167;-76
2021/10/11 10:04:23;;;;;;;363.07;87.57;;;13.70;99.90;;;;;;6189319;23;20400;-76
2021/10/11 10:06:55;;;;;;;45.33;25.63;;;13.80;99.90;;;;;;6189349;23;20957;-76
2021/10/11 10:09:26;;;;;;;104.80;44.20;;;13.70;99.90;;;;;;6189137;23;20449;-76
2021/10/11 10:11:54;;;;;;;286.17;85.10;;;13.80;99.90;;;;;;6189218;23;20420;-76
2021/10/11 10:14:23;;;;;;;306.87;79.57;;;13.80;99.90;;;;;;6189297;23;20509;-76
2021/10/11 10:16:53;;;;;;;67.17;48.17;;;13.90;99.90;;;;;;6189206;23;20505;-76
2021/10/11 10:19:32;;;;;;;53.93;46.63;;;13.90;99.90;;;;;;6189049;23;20430;-77
2021/10/11 10:22:13;;;;;;;44.67;38.60;;;14.00;99.90;;;;;;6226261;23;20410;-76
2021/10/11 10:24:42;;;;;;;139.43;104.57;;;14.10;99.90;;;;;;6215931;23;20821;-76
2021/10/11 10:27:13;;;;;;;215.73;151.67;;;14.10;99.90;;;;;;6226287;23;20882;-76
2021/10/11 10:29:43;;;;;;;632.60;300.57;;;14.20;99.90;;;;;;6189142;23;20435;-77
2021/10/11 10:32:13;;;;;;;769.30;410.50;;;14.20;99.90;;;;;;6189261;23;20462;-76
2021/10/11 10:34:41;;;;;;;1413.07;566.63;;;14.30;99.90;;;;;;6189416;23;20541;-76
2021/10/11 10:37:14;;;;;;;1030.73;450.83;;;14.30;99.90;;;;;;6189141;23;20418;-76
2021/10/11 10:39:44;;;;;;;6.95;2.17;;;14.30;99.90;;;;;;6188111;23;20444;-76
2021/10/11 10:42:24;;;;;;;95.83;65.47;;;14.40;99.90;;;;;;6189144;23;20168;-77
2021/10/11 10:44:52;;;;;;;404.07;233.27;;;14.40;99.90;;;;;;6189117;23;20406;-76
2021/10/11 10:47:31;;;;;;;1312.70;513.17;;;14.40;99.90;;;;;;6216551;23;20407;-77
2021/10/11 10:49:59;;;;;;;1835.77;736.53;;;14.50;99.90;;;;;;6191198;23;20446;-76
2021/10/11 10:52:29;;;;;;;1999.90;867.43;;;14.50;99.90;;;;;;6228123;23;20485;-76
2021/10/11 10:54:59;;;;;;;1999.90;990.77;;;14.50;99.90;;;;;;6227908;23;20414;-77
2021/10/11 10:57:29;;;;;;;1999.90;931.93;;;14.60;99.90;;;;;;6228097;23;20440;-77
2021/10/11 11:00:00;;;;;;;1999.90;950.03;;;14.60;99.90;;;;;;6190971;23;20453;-77
2021/10/11 11:02:30;;;;;;;1999.90;852.43;;;14.60;99.90;;;;;;6191020;23;20851;-77
2021/10/11 11:05:02;;;;;;;1999.90;928.90;;;14.70;99.90;;;;;;6191010;23;20384;-77
2021/10/11 11:07:34;;;;;;;1999.90;938.63;;;14.70;99.90;;;;;;6190793;23;20473;-77
2021/10/11 11:10:06;;;;;;;1999.90;568.27;;;14.70;99.90;;;;;;6190934;23;20490;-77
2021/10/11 11:12:37;;;;;;;1999.90;948.07;;;14.80;99.90;;;;;;6191057;23;20429;-76
2021/10/11 11:15:08;;;;;;;1999.90;755.00;;;14.80;99.90;;;;;;6227697;23;20399;-77
2021/10/11 11:17:40;;;;;;;1999.90;660.73;;;14.90;99.90;;;;;;6190845;23;20381;-77
2021/10/11 11:20:18;;;;;;;1999.90;618.70;;;14.90;99.90;;;;;;6190873;23;20461;-77
2021/10/11 11:22:48;;;;;;;273.23;179.98;;;14.90;99.90;;;;;;6190552;23;20432;-77
2021/10/11 11:25:17;;;;;;;1999.90;941.17;;;15.00;99.90;;;;;;6228214;23;20170;-77
2021/10/11 11:27:45;;;;;;;1999.90;980.50;;;15.10;99.90;;;;;;6217641;23;20452;-77
2021/10/11 11:30:17;;;;;;;10.13;9.05;;;15.10;99.90;;;;;;6189323;23;20484;-78
2021/10/11 11:32:50;;;;;;;1999.90;933.00;;;15.20;99.90;;;;;;6190670;23;20206;-77
2021/10/11 11:35:23;;;;;;;1999.90;947.83;;;15.30;99.90;;;;;;6190657;23;20422;-77
2021/10/11 11:37:55;;;;;;;1999.90;933.73;;;15.30;99.90;;;;;;6227203;23;20441;-77
2021/10/11 11:40:25;;;;;;;1999.90;836.60;;;15.30;99.90;;;;;;6190776;23;20728;-76
2021/10/11 11:42:54;;;;;;;1999.90;490.73;;;15.30;99.90;;;;;;6227293;23;20441;-76
2021/10/11 11:45:35;;;;;;;1999.90;624.60;;;15.30;99.90;;;;;;6227461;23;20401;-77
2021/10/11 11:48:05;;;;;;;1999.90;592.63;;;15.30;99.90;;;;;;6190628;23;20441;-77
2021/10/11 11:50:33;;;;;;;1999.90;927.63;;;15.40;99.90;;;;;;6190692;23;20387;-76
2021/10/11 11:53:05;;;;;;;1801.40;185.40;;;15.40;99.90;;;;;;6190437;23;20396;-77
2021/10/11 11:55:35;;;;;;;1999.90;764.07;;;15.40;99.90;;;;;;6190297;23;20411;-76
2021/10/11 11:58:04;;;;;;;1999.90;303.27;;;15.40;99.90;;;;;;6190265;23;20908;-77
2021/10/11 12:00:33;;;;;;;1853.63;722.37;;;15.40;99.90;;;;;;6190536;23;20407;-77
2021/10/11 12:03:03;;;;;;;1999.90;999.90;;;15.40;99.90;;;;;;6190724;23;20399;-76
2021/10/11 12:05:32;;;;;;;1999.90;999.90;;;15.40;99.90;;;;;;6190336;23;20887;-77
2021/10/11 12:08:00;;;;;;;1999.90;999.90;;;15.40;99.90;;;;;;6190298;23;20443;-77
2021/10/11 12:10:31;;;;;;;1999.90;999.90;;;15.40;99.90;;;;;;6190397;23;20461;-77
2021/10/11 12:13:02;;;;;;;1999.90;999.90;;;15.40;99.90;;;;;;6225868;23;20404;-76
2021/10/11 12:15:31;;;;;;;1867.00;725.90;;;15.50;99.90;;;;;;6190317;23;20203;-76
2021/10/11 12:18:08;;;;;;;1999.90;999.90;;;15.50;99.90;;;;;;6190059;23;20442;-76
2021/10/11 12:20:45;;;;;;;1999.90;999.90;;;15.50;99.90;;;;;;6190288;23;20708;-76
2021/10/11 12:23:15;;;;;;;1999.90;999.90;;;15.50;99.90;;;;;;6227625;23;20474;-76
2021/10/11 12:25:45;;;;;;;1673.17;708.83;;;15.50;99.90;;;;;;6190180;23;20509;-76